createdAt,value
2022-08-04T00:02:14.121Z,3.83
2022-08-04T00:04:47.291Z,3.05
2022-08-04T00:07:44.183Z,3.38
2022-08-04T00:10:11.909Z,3.35
2022-08-04T00:12:54.934Z,3.08
2022-08-04T00:15:23.362Z,3.22
2022-08-04T00:17:54.898Z,3.10
2022-08-04T00:20:23.353Z,2.95
2022-08-04T00:22:53.946Z,3.03
2022-08-04T00:25:22.488Z,3.00
2022-08-04T00:27:50.919Z,2.97
2022-08-04T00:30:19.019Z,3.45
2022-08-04T00:32:47.423Z,3.03
2022-08-04T00:35:16.520Z,3.30
2022-08-04T00:37:45.953Z,2.92
2022-08-04T00:40:26.848Z,2.60
2022-08-04T00:43:08.213Z,2.90
2022-08-04T00:46:15.017Z,3.55
2022-08-04T00:48:57.242Z,2.80
2022-08-04T00:51:31.996Z,3.80
2022-08-04T00:54:09.408Z,4.32
2022-08-04T00:56:57.231Z,3.70
2022-08-04T00:59:34.442Z,3.70
2022-08-04T01:02:08.246Z,3.30
2022-08-04T01:04:50.008Z,3.33
2022-08-04T01:07:36.126Z,2.70
2022-08-04T01:10:07.875Z,3.20
2022-08-04T01:12:53.416Z,3.70
2022-08-04T01:15:26.407Z,3.10
2022-08-04T01:18:06.399Z,3.22
2022-08-04T01:20:36.312Z,4.85
2022-08-04T01:23:30.049Z,5.38
2022-08-04T01:26:43.610Z,2.90
2022-08-04T01:29:12.422Z,2.55
2022-08-04T01:32:03.759Z,3.15
2022-08-04T01:34:36.296Z,4.28
2022-08-04T01:37:10.304Z,3.13
2022-08-04T01:39:46.365Z,3.22
2022-08-04T01:42:32.010Z,2.72
2022-08-04T01:45:02.723Z,4.20
2022-08-04T01:47:31.898Z,2.88
2022-08-04T01:50:06.342Z,3.03
2022-08-04T01:52:36.235Z,2.42
2022-08-04T01:55:07.242Z,2.97
2022-08-04T01:57:38.270Z,2.42
2022-08-04T02:00:10.400Z,2.40
2022-08-04T02:02:38.573Z,3.42
2022-08-04T02:05:07.119Z,5.05
2022-08-04T02:07:44.328Z,5.70
2022-08-04T02:10:24.505Z,2.30
2022-08-04T02:12:59.274Z,2.35
2022-08-04T02:15:32.045Z,2.40
2022-08-04T02:18:05.184Z,2.47
2022-08-04T02:20:36.576Z,2.20
2022-08-04T02:23:11.310Z,2.50
2022-08-04T02:25:42.375Z,2.17
2022-08-04T02:28:19.342Z,2.20
2022-08-04T02:30:56.308Z,2.80
2022-08-04T02:33:28.312Z,2.45
2022-08-04T02:36:02.357Z,2.60
2022-08-04T02:38:42.260Z,2.17
2022-08-04T02:41:10.857Z,2.30
2022-08-04T02:43:51.619Z,2.10
2022-08-04T02:46:23.098Z,2.38
2022-08-04T02:48:53.102Z,2.45
2022-08-04T02:51:24.307Z,2.63
2022-08-04T02:53:55.713Z,2.45
2022-08-04T02:56:25.181Z,2.30
2022-08-04T02:58:54.883Z,2.17
2022-08-04T03:01:25.152Z,2.00
2022-08-04T03:04:00.264Z,2.83
2022-08-04T03:07:00.588Z,2.00
2022-08-04T03:10:01.499Z,2.40
2022-08-04T03:13:04.342Z,2.55
2022-08-04T03:16:09.398Z,2.22
2022-08-04T03:19:18.857Z,2.33
2022-08-04T03:22:20.097Z,2.00
2022-08-04T03:25:25.135Z,2.13
2022-08-04T03:28:28.756Z,2.13
2022-08-04T03:31:37.135Z,2.20
2022-08-04T03:34:16.740Z,2.03
2022-08-04T03:37:11.839Z,2.23
2022-08-04T03:40:18.978Z,2.00
2022-08-04T03:43:58.807Z,1.98
2022-08-04T03:46:48.410Z,2.13
2022-08-04T03:49:43.898Z,2.10
2022-08-04T03:52:47.225Z,2.70
2022-08-04T03:55:51.569Z,2.17
2022-08-04T03:58:54.941Z,2.43
2022-08-04T04:02:01.291Z,1.90
2022-08-04T04:05:01.192Z,2.23
2022-08-04T04:08:19.051Z,1.90
2022-08-04T04:11:29.404Z,1.95
2022-08-04T04:14:13.037Z,2.07
2022-08-04T04:16:55.427Z,2.00
2022-08-04T04:19:58.676Z,1.70
2022-08-04T04:22:47.879Z,1.93
2022-08-04T04:25:30.486Z,2.00
2022-08-04T04:28:44.599Z,2.13
2022-08-04T04:31:28.366Z,2.07
2022-08-04T04:34:03.153Z,1.60
2022-08-04T04:36:41.576Z,2.17
2022-08-04T04:39:15.925Z,1.93
2022-08-04T04:41:55.123Z,1.80
2022-08-04T04:44:57.058Z,2.00
2022-08-04T04:48:03.537Z,2.30
2022-08-04T04:50:30.081Z,1.70
2022-08-04T04:53:11.250Z,2.00
2022-08-04T04:55:48.112Z,1.50
2022-08-04T04:58:18.807Z,1.70
2022-08-04T05:00:59.096Z,1.97
2022-08-04T05:03:50.380Z,1.90
2022-08-04T05:06:28.211Z,1.60
2022-08-04T05:09:09.212Z,1.73
2022-08-04T05:12:02.395Z,1.70
2022-08-04T05:14:41.004Z,1.80
2022-08-04T05:17:17.102Z,1.87
2022-08-04T05:19:53.550Z,1.70
2022-08-04T05:22:25.778Z,1.57
2022-08-04T05:25:00.450Z,1.70
2022-08-04T05:27:32.940Z,1.73
2022-08-04T05:30:06.110Z,2.43
2022-08-04T05:32:42.781Z,1.60
2022-08-04T05:35:16.808Z,1.60
2022-08-04T05:38:07.658Z,1.67
2022-08-04T05:40:39.769Z,1.80
2022-08-04T05:43:08.356Z,1.60
2022-08-04T05:45:38.995Z,1.80
2022-08-04T05:48:09.707Z,1.40
2022-08-04T05:50:38.113Z,1.70
2022-08-04T05:53:07.291Z,1.63
2022-08-04T05:55:58.382Z,1.77
2022-08-04T05:58:25.135Z,1.60
2022-08-04T06:00:54.168Z,1.50
2022-08-04T06:03:22.917Z,2.10
2022-08-04T06:05:51.737Z,1.70
2022-08-04T06:08:19.953Z,2.70
2022-08-04T06:10:49.729Z,1.90
2022-08-04T06:13:47.602Z,1.92
2022-08-04T06:16:29.075Z,1.45
2022-08-04T06:20:02.307Z,2.05
2022-08-04T06:21:51.875Z,2.05
2022-08-04T06:24:22.170Z,1.83
2022-08-04T06:26:52.055Z,2.00
2022-08-04T06:29:25.543Z,2.30
2022-08-04T06:32:27.157Z,2.20
2022-08-04T06:34:48.023Z,1.90
2022-08-04T06:37:41.222Z,1.88
2022-08-04T06:40:29.822Z,1.80
2022-08-04T06:42:57.520Z,2.47
2022-08-04T06:45:26.437Z,1.73
2022-08-04T06:47:55.036Z,1.88
2022-08-04T06:51:25.335Z,1.83
2022-08-04T06:53:12.102Z,2.08
2022-08-04T06:55:42.465Z,1.95
2022-08-04T06:58:12.503Z,2.10
2022-08-04T07:00:42.204Z,1.90
2022-08-04T07:03:12.477Z,2.10
2022-08-04T07:05:41.707Z,2.10
2022-08-04T07:08:11.848Z,1.85
2022-08-04T07:10:40.633Z,2.10
2022-08-04T07:13:09.604Z,2.20
2022-08-04T07:15:41.131Z,1.80
2022-08-04T07:18:09.222Z,2.65
2022-08-04T07:20:37.324Z,1.70
2022-08-04T07:23:05.734Z,1.90
2022-08-04T07:25:59.651Z,2.28
2022-08-04T07:28:25.248Z,2.08
2022-08-04T07:30:55.547Z,1.65
2022-08-04T07:33:27.631Z,2.15
2022-08-04T07:36:04.975Z,2.10
2022-08-04T07:38:48.816Z,2.20
2022-08-04T07:41:40.633Z,1.95
2022-08-04T07:44:09.789Z,2.88
2022-08-04T07:46:39.285Z,2.08
2022-08-04T07:49:07.633Z,1.80
2022-08-04T07:51:37.314Z,1.92
2022-08-04T07:54:07.723Z,1.80
2022-08-04T07:56:37.455Z,1.90
2022-08-04T07:59:06.293Z,1.55
2022-08-04T08:01:34.604Z,2.20
2022-08-04T08:04:06.792Z,1.80
2022-08-04T08:06:42.732Z,1.70
2022-08-04T08:09:14.522Z,2.03
2022-08-04T08:12:37.957Z,1.70
2022-08-04T08:14:31.910Z,1.80
2022-08-04T08:17:01.628Z,1.63
2022-08-04T08:19:31.230Z,2.03
2022-08-04T08:22:00.894Z,1.75
2022-08-04T08:24:29.930Z,1.95
2022-08-04T08:26:58.274Z,1.90
2022-08-04T08:29:27.440Z,2.17
2022-08-04T08:32:01.504Z,2.22
2022-08-04T08:34:32.668Z,2.20
2022-08-04T08:37:06.376Z,2.72
2022-08-04T08:39:39.618Z,2.10
2022-08-04T08:42:48.928Z,1.85
2022-08-04T08:45:31.430Z,1.83
2022-08-04T08:48:17.867Z,1.60
2022-08-04T08:51:24.986Z,1.80
2022-08-04T08:54:00.998Z,2.05
2022-08-04T08:56:35.298Z,2.20
2022-08-04T08:59:27.015Z,2.10
2022-08-04T09:02:16.182Z,2.55
2022-08-04T09:05:07.672Z,2.08
2022-08-04T09:08:03.412Z,2.05
2022-08-04T09:10:37.756Z,2.28
2022-08-04T09:13:12.277Z,2.30
2022-08-04T09:15:54.372Z,1.83
2022-08-04T09:18:27.316Z,2.00
2022-08-04T09:21:00.714Z,2.05
2022-08-04T09:23:45.257Z,2.20
2022-08-04T09:26:20.543Z,1.77
2022-08-04T09:28:55.146Z,1.75
2022-08-04T09:31:26.213Z,2.20
2022-08-04T09:34:01.647Z,2.00
2022-08-04T09:36:34.992Z,2.35
2022-08-04T09:39:13.484Z,2.10
2022-08-04T09:41:52.550Z,2.20
2022-08-04T09:44:48.776Z,1.90
2022-08-04T09:47:22.099Z,1.92
2022-08-04T09:49:57.008Z,2.13
2022-08-04T09:52:29.982Z,1.83
2022-08-04T09:55:07.040Z,2.58
2022-08-04T09:57:46.498Z,2.08
2022-08-04T10:00:17.190Z,2.10
2022-08-04T10:02:49.640Z,2.10
2022-08-04T10:05:21.910Z,1.95
2022-08-04T10:08:15.221Z,2.28
2022-08-04T10:10:53.595Z,2.10
2022-08-04T10:13:28.510Z,2.10
2022-08-04T10:16:17.186Z,1.80
2022-08-04T10:18:54.709Z,2.22
2022-08-04T10:21:31.623Z,2.17
2022-08-04T10:24:28.409Z,2.15
2022-08-04T10:27:02.721Z,2.20
2022-08-04T10:29:40.089Z,2.10
2022-08-04T10:32:12.812Z,2.25
2022-08-04T10:34:44.489Z,2.00
2022-08-04T10:37:21.182Z,2.30
2022-08-04T10:40:17.912Z,2.17
2022-08-04T10:43:00.174Z,2.10
2022-08-04T10:45:35.393Z,2.33
2022-08-04T10:48:10.763Z,2.00
2022-08-04T10:50:46.603Z,2.20
2022-08-04T10:53:19.401Z,2.00
2022-08-04T10:56:07.260Z,1.83
2022-08-04T10:58:47.698Z,2.20
2022-08-04T11:02:01.087Z,2.25
2022-08-04T11:04:26.761Z,2.10
2022-08-04T11:07:00.849Z,2.15
2022-08-04T11:09:30.207Z,2.17
2022-08-04T11:12:02.526Z,2.35
2022-08-04T11:14:36.551Z,2.63
2022-08-04T11:17:08.191Z,2.25
2022-08-04T11:19:45.079Z,2.58
2022-08-04T11:22:18.781Z,2.40
2022-08-04T11:24:52.011Z,2.20
2022-08-04T11:27:27.415Z,2.50
2022-08-04T11:30:05.134Z,2.30
2022-08-04T11:32:39.100Z,2.15
2022-08-04T11:35:16.381Z,2.28
2022-08-04T11:37:47.977Z,2.28
2022-08-04T11:40:22.746Z,2.50
2022-08-04T11:42:55.076Z,2.40
2022-08-04T11:45:32.421Z,2.33
2022-08-04T11:48:07.411Z,2.08
2022-08-04T11:50:42.253Z,2.03
2022-08-04T11:53:15.693Z,2.70
2022-08-04T11:56:07.749Z,2.22
2022-08-04T11:58:38.420Z,2.28
2022-08-04T12:01:21.721Z,2.20
2022-08-04T12:04:04.555Z,2.22
2022-08-04T12:07:04.694Z,2.65
2022-08-04T12:09:45.935Z,2.30
2022-08-04T12:12:21.495Z,2.50
2022-08-04T12:14:54.445Z,2.70
2022-08-04T12:17:33.644Z,2.53
2022-08-04T12:20:40.817Z,2.90
2022-08-04T12:23:11.408Z,2.15
2022-08-04T12:25:45.154Z,2.42
2022-08-04T12:28:18.759Z,2.72
2022-08-04T12:30:59.111Z,2.58
2022-08-04T12:33:41.364Z,2.53
2022-08-04T12:36:33.338Z,2.42
2022-08-04T12:39:06.550Z,2.60
2022-08-04T12:41:40.208Z,2.17
2022-08-04T12:44:33.382Z,2.28
2022-08-04T12:47:26.403Z,2.00
2022-08-04T12:50:00.130Z,2.10
2022-08-04T12:55:19.735Z,2.50
2022-08-04T12:57:48.546Z,2.22
2022-08-04T13:00:31.251Z,2.13
2022-08-04T13:03:09.849Z,2.20
2022-08-04T13:05:43.121Z,1.80
2022-08-04T13:08:16.472Z,2.10
2022-08-04T13:10:47.939Z,2.13
2022-08-04T13:13:18.912Z,2.20
2022-08-04T13:16:00.333Z,2.00
2022-08-04T13:21:23.116Z,2.20
2022-08-04T13:24:22.665Z,1.92
2022-08-04T13:27:03.571Z,2.00
2022-08-04T13:29:59.769Z,1.95
2022-08-04T13:30:24.088Z,2.10
2022-08-04T13:32:25.997Z,1.83
2022-08-04T13:34:55.868Z,2.20
2022-08-04T13:37:28.241Z,1.80
2022-08-04T13:39:57.143Z,1.70
2022-08-04T13:42:27.274Z,1.88
2022-08-04T13:44:57.959Z,1.90
2022-08-04T13:47:32.153Z,2.28
2022-08-04T13:50:19.641Z,1.95
2022-08-04T13:52:53.795Z,2.03
2022-08-04T13:55:24.994Z,2.08
2022-08-04T13:57:57.398Z,2.00
2022-08-04T14:00:30.090Z,2.03
2022-08-04T14:03:23.211Z,2.20
2022-08-04T14:06:14.432Z,2.17
2022-08-04T14:08:51.081Z,1.80
2022-08-04T14:12:09.445Z,2.05
2022-08-04T14:14:19.879Z,1.88
2022-08-04T14:17:01.671Z,2.88
2022-08-04T14:19:45.974Z,2.65
2022-08-04T14:22:29.531Z,3.13
2022-08-04T14:25:01.890Z,3.08
2022-08-04T14:27:30.540Z,2.58
2022-08-04T14:30:01.353Z,2.58
2022-08-04T14:32:29.527Z,3.08
2022-08-04T14:34:57.819Z,2.70
2022-08-04T14:37:25.956Z,2.67
2022-08-04T14:40:07.846Z,2.67
2022-08-04T14:42:54.901Z,3.40
2022-08-04T14:45:34.469Z,3.40
2022-08-04T14:48:03.714Z,3.72
2022-08-04T14:50:37.491Z,3.85
2022-08-04T14:53:08.530Z,3.67
2022-08-04T14:55:37.688Z,4.43
2022-08-04T14:58:36.578Z,3.53
2022-08-04T15:00:59.063Z,3.95
2022-08-04T15:03:28.235Z,2.95
2022-08-04T15:06:05.467Z,3.20
2022-08-04T15:08:36.502Z,3.30
2022-08-04T15:11:04.798Z,3.45
2022-08-04T15:13:35.061Z,2.60
2022-08-04T15:16:08.493Z,2.60
2022-08-04T15:18:44.179Z,3.22
2022-08-04T15:21:19.800Z,3.30
2022-08-04T15:23:47.991Z,3.03
2022-08-04T15:26:21.495Z,3.30
2022-08-04T15:28:53.783Z,2.65
2022-08-04T15:32:05.471Z,2.70
2022-08-04T15:34:14.911Z,2.33
2022-08-04T15:36:58.438Z,2.20
2022-08-04T15:39:35.995Z,2.40
2022-08-04T15:42:20.564Z,1.83
2022-08-04T15:45:22.438Z,2.42
2022-08-04T15:48:34.885Z,1.70
2022-08-04T15:51:14.464Z,1.95
2022-08-04T15:54:23.382Z,2.20
2022-08-04T15:57:01.357Z,1.75
2022-08-04T16:00:15.255Z,2.15
2022-08-04T16:02:45.163Z,1.75
2022-08-04T16:05:40.394Z,1.85
2022-08-04T16:08:16.032Z,2.03
2022-08-04T16:10:49.123Z,2.00
2022-08-04T16:13:19.889Z,1.85
2022-08-04T16:15:55.534Z,1.50
2022-08-04T16:18:41.038Z,1.80
2022-08-04T16:21:19.932Z,1.63
2022-08-04T16:24:11.255Z,1.73
2022-08-04T16:26:55.101Z,1.80
2022-08-04T16:29:39.030Z,1.67
2022-08-04T16:32:21.199Z,1.70
2022-08-04T16:34:56.487Z,2.00
2022-08-04T16:37:28.254Z,1.65
2022-08-04T16:40:37.435Z,1.88
2022-08-04T16:43:09.633Z,2.00
2022-08-04T16:45:42.520Z,1.90
2022-08-04T16:48:11.484Z,1.70
2022-08-04T16:51:04.837Z,1.70
2022-08-04T16:53:52.115Z,1.73
2022-08-04T16:56:30.356Z,2.40
2022-08-04T16:59:08.550Z,2.05
2022-08-04T17:01:36.766Z,1.88
2022-08-04T17:04:08.124Z,2.08
2022-08-04T17:06:43.210Z,1.85
2022-08-04T17:09:13.615Z,2.00
2022-08-04T17:11:42.462Z,2.50
2022-08-04T17:14:10.907Z,1.77
2022-08-04T17:16:41.077Z,2.67
2022-08-04T17:19:25.113Z,3.15
2022-08-04T17:22:02.187Z,1.80
2022-08-04T17:24:31.905Z,2.55
2022-08-04T17:27:00.163Z,2.70
2022-08-04T17:29:42.982Z,2.25
2022-08-04T17:32:15.955Z,2.35
2022-08-04T17:34:48.677Z,2.72
2022-08-04T17:37:39.102Z,1.90
2022-08-04T17:40:13.156Z,2.47
2022-08-04T17:42:45.018Z,1.63
2022-08-04T17:51:16.818Z,1.83
2022-08-04T17:54:02.656Z,1.80
2022-08-04T17:56:36.422Z,1.80
2022-08-04T17:59:48.255Z,1.50
2022-08-04T18:02:11.356Z,1.83
2022-08-04T18:05:05.916Z,1.58
2022-08-04T18:08:40.590Z,1.67
2022-08-04T18:10:39.714Z,1.92
2022-08-04T18:13:23.071Z,1.67
2022-08-04T18:15:52.025Z,1.48
2022-08-04T18:18:23.569Z,1.60
2022-08-04T18:20:51.977Z,1.58
2022-08-04T18:23:20.237Z,1.48
2022-08-04T18:26:03.510Z,2.22
2022-08-04T18:28:33.454Z,1.55
2022-08-04T18:31:02.438Z,1.60
2022-08-04T18:33:39.442Z,1.80
2022-08-04T18:36:32.464Z,1.85
2022-08-04T18:38:59.314Z,1.50
2022-08-04T18:42:01.298Z,1.67
2022-08-04T18:44:31.624Z,1.73
2022-08-04T18:47:19.631Z,1.60
2022-08-04T18:50:58.737Z,1.75
2022-08-04T18:52:36.441Z,1.70
2022-08-04T18:55:56.457Z,1.55
2022-08-04T18:58:07.059Z,1.75
2022-08-04T19:00:45.737Z,1.38
2022-08-04T19:03:16.500Z,2.15
2022-08-04T19:05:59.761Z,1.75
2022-08-04T19:08:35.022Z,1.60
2022-08-04T19:11:37.335Z,2.30
2022-08-04T19:13:58.629Z,1.88
2022-08-04T19:19:18.031Z,1.60
2022-08-04T19:22:01.155Z,1.55
2022-08-04T19:24:35.042Z,1.70
2022-08-04T19:27:07.516Z,2.17
2022-08-04T19:29:41.131Z,2.05
2022-08-04T19:32:14.448Z,2.05
2022-08-04T19:34:46.260Z,2.55
2022-08-04T19:37:57.780Z,2.30
2022-08-04T19:40:04.737Z,2.05
2022-08-04T19:42:33.031Z,2.28
2022-08-04T19:45:02.641Z,1.70
2022-08-04T19:50:18.815Z,2.30
2022-08-04T19:55:38.343Z,3.28
2022-08-04T19:58:10.142Z,1.83
2022-08-04T20:00:50.914Z,3.10
2022-08-04T20:06:08.063Z,3.25
2022-08-04T20:08:37.029Z,4.20
2022-08-04T20:11:08.191Z,3.75
2022-08-04T20:13:40.119Z,5.50
2022-08-04T20:16:28.329Z,3.38
2022-08-04T20:19:02.821Z,3.10
2022-08-04T20:21:53.478Z,3.20
2022-08-04T20:24:40.244Z,2.30
2022-08-04T20:27:11.805Z,3.90
2022-08-04T20:29:48.587Z,4.50
2022-08-04T20:32:20.132Z,4.00
2022-08-04T20:34:51.554Z,4.70
2022-08-04T20:40:11.076Z,3.90
2022-08-04T20:42:40.380Z,2.70
2022-08-04T20:45:16.514Z,2.53
2022-08-04T20:47:54.044Z,3.95
2022-08-04T20:50:30.066Z,4.50
2022-08-04T20:52:58.773Z,3.38
2022-08-04T20:55:29.498Z,4.68
2022-08-04T20:58:03.107Z,4.38
2022-08-04T21:00:32.152Z,2.33
2022-08-04T21:03:01.698Z,3.53
2022-08-04T21:05:31.542Z,4.63
2022-08-04T21:08:00.089Z,5.10
2022-08-04T21:10:28.463Z,3.83
2022-08-04T21:12:56.587Z,5.18
2022-08-04T21:15:50.713Z,5.20
2022-08-04T21:18:16.866Z,4.75
2022-08-04T21:20:45.432Z,4.03
2022-08-04T21:23:16.513Z,5.03
2022-08-04T21:25:45.689Z,4.28
2022-08-04T21:28:20.031Z,1.77
2022-08-04T21:30:54.592Z,2.53
2022-08-04T21:33:49.896Z,4.70
2022-08-04T21:36:16.140Z,3.85
2022-08-04T21:38:51.134Z,5.18
2022-08-04T21:41:25.110Z,4.47
2022-08-04T21:43:55.870Z,3.97
2022-08-04T21:46:24.054Z,4.05
2022-08-04T21:48:53.486Z,3.55
2022-08-04T21:51:57.824Z,5.13
2022-08-04T21:54:15.128Z,4.72
2022-08-04T21:56:51.385Z,2.72
2022-08-04T21:59:23.567Z,2.75
2022-08-04T22:01:56.670Z,4.75
2022-08-04T22:04:26.117Z,5.28
2022-08-04T22:06:54.159Z,4.07
2022-08-04T22:09:22.440Z,2.60
2022-08-04T22:11:52.114Z,3.70
2022-08-04T22:14:27.264Z,3.80
2022-08-04T22:16:57.760Z,4.80
2022-08-04T22:19:50.180Z,2.63
2022-08-04T22:22:25.425Z,4.90
2022-08-04T22:24:58.339Z,3.80
2022-08-04T22:27:44.025Z,4.65
2022-08-04T22:30:17.610Z,3.65
2022-08-04T22:32:47.006Z,4.75
2022-08-04T22:35:36.395Z,5.70
2022-08-04T22:38:25.387Z,4.95
2022-08-04T22:40:58.136Z,4.93
2022-08-04T22:43:32.091Z,3.88
2022-08-04T22:46:03.904Z,3.55
2022-08-04T22:48:33.784Z,3.13
2022-08-04T22:51:03.576Z,3.47
2022-08-04T22:53:31.624Z,4.88
2022-08-04T22:56:10.225Z,4.68
2022-08-04T22:58:45.922Z,3.17
2022-08-04T23:01:19.745Z,3.47
2022-08-04T23:03:55.876Z,3.97
2022-08-04T23:06:28.531Z,4.60
2022-08-04T23:08:57.016Z,5.10
2022-08-04T23:11:35.297Z,3.50
2022-08-04T23:14:05.782Z,2.25
2022-08-04T23:16:40.630Z,3.95
2022-08-04T23:19:15.178Z,3.50
2022-08-04T23:21:47.325Z,2.80
2022-08-04T23:24:16.037Z,2.60
2022-08-04T23:26:44.125Z,3.20
2022-08-04T23:29:12.611Z,2.87
2022-08-04T23:31:59.138Z,3.37
2022-08-04T23:34:29.124Z,2.53
2022-08-04T23:37:00.395Z,2.90
2022-08-04T23:40:03.460Z,1.92
2022-08-04T23:42:21.209Z,2.10
2022-08-04T23:44:49.677Z,1.97
2022-08-04T23:48:14.491Z,2.20
2022-08-04T23:50:06.298Z,2.40
2022-08-04T23:52:35.697Z,2.90
2022-08-04T23:55:03.715Z,2.83
2022-08-04T23:58:16.851Z,2.77
